Big Bear Station Historical Data
Daily Summary for January 1, 2017 Units:  English    Metric   Both
« Previous Day
Next Day »
Daily Weekly Monthly Yearly Custom
  High: Low: Average:
Temperature: 36.5 °F 20.1 °F 27.9 °F
Dew Point: 33.2 °F 18.9 °F 26.5 °F
Humidity: 99 % 80 % 95 %
Wind Speed: 0.0 mph 0.0 mph 0 mph
Wind Gust: -999.0 mph - -
Wind:- - North
Pressure: 23.32 in 23.17 in -
Precipitation: 0.06 in    
Historical Graphs
 
 
Tabular Data for January 1, 2017
Time Temperature Dew Point Pressure Wind Wind Speed Wind Gust Humidity Rainfall Rate (Hourly)
00:03 25.9 °F 24.7 °F 23.18 in Calm   -999.0 mph 95 % 0 in
00:18 25.2 °F 24.0 °F 23.18 in Calm   -999.0 mph 95 % 0 in
00:34 24.3 °F 23.1 °F 23.18 in Calm   -999.0 mph 95 % 0 in
00:49 24.1 °F 23.1 °F 23.17 in Calm   -999.0 mph 96 % 0 in
01:04 23.4 °F 22.4 °F 23.18 in Calm   -999.0 mph 96 % 0 in
01:19 22.8 °F 21.8 °F 23.18 in Calm   -999.0 mph 96 % 0 in
01:35 22.5 °F 21.5 °F 23.18 in Calm   -999.0 mph 96 % 0 in
01:50 22.3 °F 21.3 °F 23.18 in Calm   -999.0 mph 96 % 0 in
02:05 22.1 °F 21.1 °F 23.18 in Calm   -999.0 mph 96 % 0 in
02:20 21.7 °F 20.7 °F 23.18 in Calm   -999.0 mph 96 % 0 in
02:35 21.4 °F 20.4 °F 23.18 in Calm   -999.0 mph 96 % 0 in
02:50 21.0 °F 20.0 °F 23.18 in Calm   -999.0 mph 96 % 0 in
03:06 20.5 °F 19.3 °F 23.18 in Calm   -999.0 mph 95 % 0 in
03:21 20.1 °F 18.9 °F 23.18 in Calm   -999.0 mph 95 % 0 in
03:36 21.6 °F 20.9 °F 23.18 in Calm   -999.0 mph 97 % 0 in
03:51 21.7 °F 20.7 °F 23.18 in Calm   -999.0 mph 96 % 0 in
04:06 22.5 °F 21.8 °F 23.18 in Calm   -999.0 mph 97 % 0 in
04:22 23.5 °F 23.0 °F 23.17 in Calm   -999.0 mph 98 % 0 in
04:37 24.3 °F 23.8 °F 23.17 in Calm   -999.0 mph 98 % 0 in
04:52 25.2 °F 24.7 °F 23.17 in Calm   -999.0 mph 98 % 0 in
05:07 25.3 °F 24.8 °F 23.18 in Calm   -999.0 mph 98 % 0 in
05:23 27.5 °F 27.3 °F 23.18 in Calm   -999.0 mph 99 % 0 in
05:38 28.2 °F 28.0 °F 23.18 in Calm   -999.0 mph 99 % 0 in
05:55 28.9 °F 28.7 °F 23.19 in Calm   -999.0 mph 99 % 0 in
06:10 29.1 °F 28.9 °F 23.20 in Calm   -999.0 mph 99 % 0 in
06:25 29.3 °F 29.1 °F 23.20 in Calm   -999.0 mph 99 % 0 in
06:40 29.5 °F 29.3 °F 23.20 in Calm   -999.0 mph 99 % 0 in
06:56 29.3 °F 29.1 °F 23.21 in Calm   -999.0 mph 99 % 0 in
07:11 28.8 °F 28.6 °F 23.21 in Calm   -999.0 mph 99 % 0 in
07:26 29.1 °F 28.9 °F 23.22 in Calm   -999.0 mph 99 % 0 in
07:43 29.3 °F 29.1 °F 23.23 in Calm   -999.0 mph 99 % 0 in
07:58 30.2 °F 29.5 °F 23.23 in Calm   -999.0 mph 97 % 0 in
08:13 30.6 °F 28.8 °F 23.23 in Calm   -999.0 mph 93 % 0 in
08:29 30.0 °F 28.5 °F 23.23 in Calm   -999.0 mph 94 % 0 in
08:44 29.7 °F 29.0 °F 23.23 in Calm   -999.0 mph 97 % 0 in
08:59 29.7 °F 29.0 °F 23.23 in Calm   -999.0 mph 97 % 0 in
09:14 29.7 °F 29.0 °F 23.23 in Calm   -999.0 mph 97 % 0 in
09:29 29.7 °F 29.0 °F 23.25 in Calm   -999.0 mph 97 % 0 in
09:45 30.0 °F 29.3 °F 23.26 in Calm   -999.0 mph 97 % 0 in
10:00 30.4 °F 29.4 °F 23.27 in Calm   -999.0 mph 96 % 0 in
10:15 31.3 °F 29.8 °F 23.28 in Calm   -999.0 mph 94 % 0 in
10:30 31.5 °F 30.5 °F 23.27 in Calm   -999.0 mph 96 % 0 in
10:45 32.4 °F 31.1 °F 23.27 in Calm   -999.0 mph 95 % 0 in
11:01 33.1 °F 31.8 °F 23.26 in Calm   -999.0 mph 95 % 0 in
11:16 34.7 °F 32.3 °F 23.26 in Calm   -999.0 mph 91 % 0 in
11:31 35.2 °F 32.6 °F 23.25 in Calm   -999.0 mph 90 % 0 in
11:46 35.1 °F 32.7 °F 23.25 in Calm   -999.0 mph 91 % 0 in
12:02 36.1 °F 33.2 °F 23.24 in Calm   -999.0 mph 89 % 0 in
12:17 36.3 °F 31.0 °F 23.24 in Calm   -999.0 mph 81 % 0 in
12:32 36.5 °F 31.5 °F 23.23 in Calm   -999.0 mph 82 % 0 in
12:47 35.4 °F 29.8 °F 23.23 in Calm   -999.0 mph 80 % 0 in
13:02 35.2 °F 29.7 °F 23.23 in Calm   -999.0 mph 80 % 0 in
13:18 35.1 °F 29.9 °F 23.23 in Calm   -999.0 mph 81 % 0 in
13:33 34.3 °F 29.7 °F 23.23 in Calm   -999.0 mph 83 % 0 in
13:48 33.3 °F 30.4 °F 23.23 in Calm   -999.0 mph 89 % 0 in
14:05 32.5 °F 30.4 °F 23.24 in Calm   -999.0 mph 92 % 0 in
14:20 32.4 °F 30.6 °F 23.24 in Calm   -999.0 mph 93 % 0 in
14:35 32.4 °F 30.6 °F 23.25 in Calm   -999.0 mph 93 % 0 in
14:51 32.4 °F 30.6 °F 23.26 in Calm   -999.0 mph 93 % 0 in
15:06 32.2 °F 30.4 °F 23.26 in Calm   -999.0 mph 93 % 0 in
15:21 31.8 °F 30.3 °F 23.26 in Calm   -999.0 mph 94 % 0 in
15:36 31.3 °F 29.8 °F 23.26 in Calm   -999.0 mph 94 % 0 in
15:55 30.9 °F 29.4 °F 23.26 in Calm   -999.0 mph 94 % 0 in
16:10 30.4 °F 28.9 °F 23.26 in Calm   -999.0 mph 94 % 0 in
16:25 29.3 °F 28.0 °F 23.26 in Calm   -999.0 mph 95 % 0 in
16:40 28.8 °F 27.5 °F 23.26 in Calm   -999.0 mph 95 % 0 in
16:56 28.2 °F 27.0 °F 23.26 in Calm   -999.0 mph 95 % 0 in
17:11 27.7 °F 26.7 °F 23.26 in Calm   -999.0 mph 96 % 0 in
17:26 27.0 °F 26.0 °F 23.26 in Calm   -999.0 mph 96 % 0 in
17:41 26.8 °F 25.8 °F 23.26 in Calm   -999.0 mph 96 % 0 in
17:56 26.4 °F 25.4 °F 23.26 in Calm   -999.0 mph 96 % 0 in
18:12 25.7 °F 24.7 °F 23.26 in Calm   -999.0 mph 96 % 0 in
18:27 25.3 °F 24.6 °F 23.28 in Calm   -999.0 mph 97 % 0 in
18:42 25.2 °F 24.5 °F 23.28 in Calm   -999.0 mph 97 % 0 in
18:57 24.8 °F 23.8 °F 23.28 in Calm   -999.0 mph 96 % 0 in
19:12 25.0 °F 24.0 °F 23.28 in Calm   -999.0 mph 96 % 0 in
19:27 25.0 °F 24.0 °F 23.28 in Calm   -999.0 mph 96 % 0 in
19:43 25.3 °F 24.3 °F 23.28 in Calm   -999.0 mph 96 % 0 in
19:58 25.3 °F 23.8 °F 23.29 in Calm   -999.0 mph 94 % 0 in
20:13 25.7 °F 24.0 °F 23.29 in Calm   -999.0 mph 93 % 0 in
20:29 25.7 °F 23.7 °F 23.29 in Calm   -999.0 mph 92 % 0 in
20:44 25.9 °F 24.2 °F 23.29 in Calm   -999.0 mph 93 % 0 in
20:59 25.7 °F 24.7 °F 23.29 in Calm   -999.0 mph 96 % 0 in
21:14 25.7 °F 25.0 °F 23.30 in Calm   -999.0 mph 97 % 0 in
21:29 25.7 °F 25.0 °F 23.30 in Calm   -999.0 mph 97 % 0 in
21:44 25.3 °F 24.3 °F 23.31 in Calm   -999.0 mph 96 % 0 in
22:00 25.2 °F 24.0 °F 23.31 in Calm   -999.0 mph 95 % 0 in
22:15 25.2 °F 24.0 °F 23.32 in Calm   -999.0 mph 95 % 0 in
22:30 25.2 °F 24.5 °F 23.32 in Calm   -999.0 mph 97 % 0 in
22:45 25.2 °F 24.5 °F 23.32 in Calm   -999.0 mph 97 % 0 in
23:00 25.3 °F 23.6 °F 23.32 in Calm   -999.0 mph 93 % 0 in
23:16 25.2 °F 24.0 °F 23.32 in Calm   -999.0 mph 95 % 0 in
23:31 25.3 °F 22.5 °F 23.31 in Calm   -999.0 mph 89 % 0 in
23:46 25.5 °F 21.3 °F 23.31 in Calm   -999.0 mph 84 % 0 in
Big Bear CA Weather
Compliments of Weather Underground - 1.5 mb